sensor_id;sensor_type;location;lat;lon;timestamp;P1;durP1;ratioP1;P2;durP2;ratioP2
12660;SDS011;39039;51.802;5.710;2023-05-10T00:00:47;50.20;;;44.83;;
12660;SDS011;39039;51.802;5.710;2023-05-10T00:03:15;57.17;;;45.93;;
12660;SDS011;39039;51.802;5.710;2023-05-10T00:05:42;54.40;;;42.90;;
12660;SDS011;39039;51.802;5.710;2023-05-10T00:08:10;49.87;;;44.67;;
12660;SDS011;39039;51.802;5.710;2023-05-10T00:10:37;45.30;;;40.70;;
12660;SDS011;39039;51.802;5.710;2023-05-10T00:13:05;51.53;;;43.83;;
12660;SDS011;39039;51.802;5.710;2023-05-10T00:15:32;45.40;;;40.60;;
12660;SDS011;39039;51.802;5.710;2023-05-10T00:17:59;54.67;;;45.80;;
12660;SDS011;39039;51.802;5.710;2023-05-10T00:20:28;60.77;;;46.10;;
12660;SDS011;39039;51.802;5.710;2023-05-10T00:22:55;90.67;;;51.33;;
12660;SDS011;39039;51.802;5.710;2023-05-10T00:25:21;70.97;;;49.63;;
12660;SDS011;39039;51.802;5.710;2023-05-10T00:27:48;45.83;;;40.13;;
12660;SDS011;39039;51.802;5.710;2023-05-10T00:30:15;46.07;;;41.23;;
12660;SDS011;39039;51.802;5.710;2023-05-10T00:32:43;46.40;;;41.37;;
12660;SDS011;39039;51.802;5.710;2023-05-10T00:35:10;47.23;;;42.30;;
12660;SDS011;39039;51.802;5.710;2023-05-10T00:37:38;86.40;;;48.93;;
12660;SDS011;39039;51.802;5.710;2023-05-10T00:40:06;46.70;;;41.87;;
12660;SDS011;39039;51.802;5.710;2023-05-10T00:42:33;49.80;;;42.37;;
12660;SDS011;39039;51.802;5.710;2023-05-10T00:45:00;47.10;;;42.20;;
12660;SDS011;39039;51.802;5.710;2023-05-10T00:47:27;47.63;;;41.33;;
12660;SDS011;39039;51.802;5.710;2023-05-10T00:49:55;100.77;;;50.83;;
12660;SDS011;39039;51.802;5.710;2023-05-10T00:52:22;56.50;;;43.57;;
12660;SDS011;39039;51.802;5.710;2023-05-10T00:54:51;63.30;;;50.77;;
12660;SDS011;39039;51.802;5.710;2023-05-10T00:57:18;56.13;;;47.30;;
12660;SDS011;39039;51.802;5.710;2023-05-10T00:59:46;85.10;;;51.63;;
12660;SDS011;39039;51.802;5.710;2023-05-10T01:02:13;64.87;;;46.80;;
12660;SDS011;39039;51.802;5.710;2023-05-10T01:04:40;62.53;;;47.87;;
12660;SDS011;39039;51.802;5.710;2023-05-10T01:07:07;72.47;;;49.03;;
12660;SDS011;39039;51.802;5.710;2023-05-10T01:09:34;54.03;;;45.97;;
12660;SDS011;39039;51.802;5.710;2023-05-10T01:12:03;69.97;;;48.77;;
12660;SDS011;39039;51.802;5.710;2023-05-10T01:14:31;66.67;;;47.70;;
12660;SDS011;39039;51.802;5.710;2023-05-10T01:16:59;66.00;;;50.10;;
12660;SDS011;39039;51.802;5.710;2023-05-10T01:19:28;68.80;;;51.53;;
12660;SDS011;39039;51.802;5.710;2023-05-10T01:21:58;65.37;;;50.10;;
12660;SDS011;39039;51.802;5.710;2023-05-10T01:27:33;62.03;;;49.60;;
12660;SDS011;39039;51.802;5.710;2023-05-10T01:30:26;67.40;;;50.30;;
12660;SDS011;39039;51.802;5.710;2023-05-10T01:32:58;62.37;;;49.83;;
12660;SDS011;39039;51.802;5.710;2023-05-10T01:35:30;82.33;;;52.73;;
12660;SDS011;39039;51.802;5.710;2023-05-10T01:38:04;77.50;;;55.23;;
12660;SDS011;39039;51.802;5.710;2023-05-10T01:40:35;157.77;;;59.53;;
12660;SDS011;39039;51.802;5.710;2023-05-10T01:43:05;75.30;;;55.53;;
12660;SDS011;39039;51.802;5.710;2023-05-10T01:45:37;77.80;;;53.00;;
12660;SDS011;39039;51.802;5.710;2023-05-10T01:48:08;74.57;;;53.10;;
12660;SDS011;39039;51.802;5.710;2023-05-10T01:50:43;66.67;;;53.23;;
12660;SDS011;39039;51.802;5.710;2023-05-10T01:53:11;92.53;;;56.20;;
12660;SDS011;39039;51.802;5.710;2023-05-10T01:55:39;75.13;;;52.70;;
12660;SDS011;39039;51.802;5.710;2023-05-10T01:58:08;62.60;;;51.97;;
12660;SDS011;39039;51.802;5.710;2023-05-10T02:00:36;77.87;;;55.33;;
12660;SDS011;39039;51.802;5.710;2023-05-10T02:03:08;93.93;;;60.83;;
12660;SDS011;39039;51.802;5.710;2023-05-10T02:05:36;74.13;;;54.00;;
12660;SDS011;39039;51.802;5.710;2023-05-10T02:08:05;85.70;;;56.63;;
12660;SDS011;39039;51.802;5.710;2023-05-10T02:10:33;70.40;;;54.83;;
12660;SDS011;39039;51.802;5.710;2023-05-10T02:13:01;77.30;;;57.23;;
12660;SDS011;39039;51.802;5.710;2023-05-10T02:15:29;87.70;;;58.80;;
12660;SDS011;39039;51.802;5.710;2023-05-10T02:17:57;92.77;;;61.07;;
12660;SDS011;39039;51.802;5.710;2023-05-10T02:20:26;95.83;;;60.10;;
12660;SDS011;39039;51.802;5.710;2023-05-10T02:22:54;76.77;;;60.97;;
12660;SDS011;39039;51.802;5.710;2023-05-10T02:25:21;96.00;;;56.37;;
12660;SDS011;39039;51.802;5.710;2023-05-10T02:27:49;90.23;;;57.10;;
12660;SDS011;39039;51.802;5.710;2023-05-10T02:30:16;81.90;;;59.37;;
12660;SDS011;39039;51.802;5.710;2023-05-10T02:32:44;77.63;;;58.27;;
12660;SDS011;39039;51.802;5.710;2023-05-10T02:35:12;100.97;;;60.53;;
12660;SDS011;39039;51.802;5.710;2023-05-10T02:37:41;79.10;;;55.60;;
12660;SDS011;39039;51.802;5.710;2023-05-10T02:40:09;110.77;;;58.97;;
12660;SDS011;39039;51.802;5.710;2023-05-10T02:42:37;88.07;;;57.37;;
12660;SDS011;39039;51.802;5.710;2023-05-10T02:45:07;88.93;;;59.50;;
12660;SDS011;39039;51.802;5.710;2023-05-10T02:47:34;85.50;;;56.70;;
12660;SDS011;39039;51.802;5.710;2023-05-10T02:50:01;86.47;;;59.07;;
12660;SDS011;39039;51.802;5.710;2023-05-10T02:52:29;98.27;;;58.77;;
12660;SDS011;39039;51.802;5.710;2023-05-10T02:55:05;94.10;;;55.73;;
12660;SDS011;39039;51.802;5.710;2023-05-10T02:57:34;85.80;;;61.13;;
12660;SDS011;39039;51.802;5.710;2023-05-10T03:00:02;88.37;;;61.47;;
12660;SDS011;39039;51.802;5.710;2023-05-10T03:02:30;86.77;;;55.87;;
12660;SDS011;39039;51.802;5.710;2023-05-10T03:04:57;92.43;;;58.83;;
12660;SDS011;39039;51.802;5.710;2023-05-10T03:07:24;87.87;;;57.13;;
12660;SDS011;39039;51.802;5.710;2023-05-10T03:09:51;82.40;;;56.83;;
12660;SDS011;39039;51.802;5.710;2023-05-10T03:12:22;103.07;;;59.23;;
12660;SDS011;39039;51.802;5.710;2023-05-10T03:14:53;77.67;;;55.20;;
12660;SDS011;39039;51.802;5.710;2023-05-10T03:17:22;89.63;;;58.03;;
12660;SDS011;39039;51.802;5.710;2023-05-10T03:19:53;94.90;;;63.03;;
12660;SDS011;39039;51.802;5.710;2023-05-10T03:22:21;98.13;;;59.30;;
12660;SDS011;39039;51.802;5.710;2023-05-10T03:24:50;89.03;;;55.80;;
12660;SDS011;39039;51.802;5.710;2023-05-10T03:27:20;94.07;;;59.23;;
12660;SDS011;39039;51.802;5.710;2023-05-10T03:29:49;112.53;;;60.57;;
12660;SDS011;39039;51.802;5.710;2023-05-10T03:32:17;99.03;;;61.47;;
12660;SDS011;39039;51.802;5.710;2023-05-10T03:34:44;86.10;;;57.20;;
12660;SDS011;39039;51.802;5.710;2023-05-10T03:37:11;92.47;;;60.67;;
12660;SDS011;39039;51.802;5.710;2023-05-10T03:39:38;90.50;;;60.70;;
12660;SDS011;39039;51.802;5.710;2023-05-10T03:42:05;92.33;;;62.60;;
12660;SDS011;39039;51.802;5.710;2023-05-10T03:44:33;104.43;;;60.53;;
12660;SDS011;39039;51.802;5.710;2023-05-10T03:47:00;119.83;;;60.77;;
12660;SDS011;39039;51.802;5.710;2023-05-10T03:49:27;97.20;;;59.63;;
12660;SDS011;39039;51.802;5.710;2023-05-10T03:51:54;109.30;;;64.40;;
12660;SDS011;39039;51.802;5.710;2023-05-10T03:54:21;93.60;;;59.50;;
12660;SDS011;39039;51.802;5.710;2023-05-10T03:56:48;96.23;;;56.63;;
12660;SDS011;39039;51.802;5.710;2023-05-10T03:59:15;101.20;;;60.83;;
12660;SDS011;39039;51.802;5.710;2023-05-10T04:01:44;110.83;;;62.10;;
12660;SDS011;39039;51.802;5.710;2023-05-10T04:04:11;87.63;;;60.60;;
12660;SDS011;39039;51.802;5.710;2023-05-10T04:06:38;103.07;;;66.47;;
12660;SDS011;39039;51.802;5.710;2023-05-10T04:09:05;114.93;;;66.07;;
12660;SDS011;39039;51.802;5.710;2023-05-10T04:11:33;103.93;;;60.90;;
12660;SDS011;39039;51.802;5.710;2023-05-10T04:14:00;110.87;;;61.60;;
12660;SDS011;39039;51.802;5.710;2023-05-10T04:16:27;118.07;;;59.60;;
12660;SDS011;39039;51.802;5.710;2023-05-10T04:18:55;109.43;;;70.07;;
12660;SDS011;39039;51.802;5.710;2023-05-10T04:21:22;88.77;;;62.23;;
12660;SDS011;39039;51.802;5.710;2023-05-10T04:23:50;100.53;;;65.37;;
12660;SDS011;39039;51.802;5.710;2023-05-10T04:26:17;111.57;;;63.87;;
12660;SDS011;39039;51.802;5.710;2023-05-10T04:28:44;91.10;;;60.87;;
12660;SDS011;39039;51.802;5.710;2023-05-10T04:31:11;116.50;;;65.63;;
12660;SDS011;39039;51.802;5.710;2023-05-10T04:33:38;91.00;;;58.27;;
12660;SDS011;39039;51.802;5.710;2023-05-10T04:36:06;97.73;;;62.73;;
12660;SDS011;39039;51.802;5.710;2023-05-10T04:38:33;95.80;;;64.17;;
12660;SDS011;39039;51.802;5.710;2023-05-10T04:41:04;97.97;;;65.13;;
12660;SDS011;39039;51.802;5.710;2023-05-10T04:43:31;91.53;;;63.97;;
12660;SDS011;39039;51.802;5.710;2023-05-10T04:45:58;81.87;;;59.20;;
12660;SDS011;39039;51.802;5.710;2023-05-10T04:48:25;75.93;;;58.50;;
12660;SDS011;39039;51.802;5.710;2023-05-10T04:50:52;76.37;;;56.57;;
12660;SDS011;39039;51.802;5.710;2023-05-10T04:53:20;85.90;;;62.13;;
12660;SDS011;39039;51.802;5.710;2023-05-10T04:55:48;78.77;;;58.50;;
12660;SDS011;39039;51.802;5.710;2023-05-10T04:58:15;83.30;;;60.60;;
12660;SDS011;39039;51.802;5.710;2023-05-10T05:00:42;75.30;;;56.43;;
12660;SDS011;39039;51.802;5.710;2023-05-10T05:03:09;80.23;;;58.00;;
12660;SDS011;39039;51.802;5.710;2023-05-10T05:05:36;77.67;;;56.83;;
12660;SDS011;39039;51.802;5.710;2023-05-10T05:08:03;77.03;;;57.73;;
12660;SDS011;39039;51.802;5.710;2023-05-10T05:10:31;75.73;;;54.37;;
12660;SDS011;39039;51.802;5.710;2023-05-10T05:12:58;84.40;;;56.07;;
12660;SDS011;39039;51.802;5.710;2023-05-10T05:15:27;76.47;;;52.83;;
12660;SDS011;39039;51.802;5.710;2023-05-10T05:17:55;107.47;;;64.13;;
12660;SDS011;39039;51.802;5.710;2023-05-10T05:20:22;75.17;;;55.63;;
12660;SDS011;39039;51.802;5.710;2023-05-10T05:22:49;78.77;;;58.83;;
12660;SDS011;39039;51.802;5.710;2023-05-10T05:25:16;75.20;;;57.83;;
12660;SDS011;39039;51.802;5.710;2023-05-10T05:27:45;93.60;;;60.90;;
12660;SDS011;39039;51.802;5.710;2023-05-10T05:30:12;98.77;;;70.57;;
12660;SDS011;39039;51.802;5.710;2023-05-10T05:32:39;82.40;;;58.90;;
12660;SDS011;39039;51.802;5.710;2023-05-10T05:35:06;100.57;;;64.30;;
12660;SDS011;39039;51.802;5.710;2023-05-10T05:37:36;85.00;;;64.13;;
12660;SDS011;39039;51.802;5.710;2023-05-10T05:40:03;80.37;;;57.57;;
12660;SDS011;39039;51.802;5.710;2023-05-10T05:42:30;76.07;;;58.37;;
12660;SDS011;39039;51.802;5.710;2023-05-10T05:44:59;79.43;;;59.23;;
12660;SDS011;39039;51.802;5.710;2023-05-10T05:47:25;84.47;;;60.07;;
12660;SDS011;39039;51.802;5.710;2023-05-10T05:49:52;74.40;;;56.53;;
12660;SDS011;39039;51.802;5.710;2023-05-10T05:52:20;77.03;;;58.07;;
12660;SDS011;39039;51.802;5.710;2023-05-10T05:54:47;72.57;;;60.53;;
12660;SDS011;39039;51.802;5.710;2023-05-10T05:57:14;76.97;;;59.93;;
12660;SDS011;39039;51.802;5.710;2023-05-10T05:59:41;78.20;;;54.80;;
12660;SDS011;39039;51.802;5.710;2023-05-10T06:02:10;70.30;;;61.50;;
12660;SDS011;39039;51.802;5.710;2023-05-10T06:04:37;68.97;;;54.73;;
12660;SDS011;39039;51.802;5.710;2023-05-10T06:07:04;64.37;;;54.10;;
12660;SDS011;39039;51.802;5.710;2023-05-10T06:09:31;66.13;;;58.90;;
12660;SDS011;39039;51.802;5.710;2023-05-10T06:11:58;61.90;;;53.23;;
12660;SDS011;39039;51.802;5.710;2023-05-10T06:14:25;64.47;;;57.77;;
12660;SDS011;39039;51.802;5.710;2023-05-10T06:16:52;64.50;;;54.93;;
12660;SDS011;39039;51.802;5.710;2023-05-10T06:19:21;70.40;;;55.97;;
12660;SDS011;39039;51.802;5.710;2023-05-10T06:21:47;71.83;;;55.27;;
12660;SDS011;39039;51.802;5.710;2023-05-10T06:24:14;83.30;;;62.53;;
12660;SDS011;39039;51.802;5.710;2023-05-10T06:26:41;77.63;;;51.67;;
12660;SDS011;39039;51.802;5.710;2023-05-10T06:29:08;93.93;;;62.13;;
12660;SDS011;39039;51.802;5.710;2023-05-10T06:31:35;74.57;;;57.33;;
12660;SDS011;39039;51.802;5.710;2023-05-10T06:34:03;96.43;;;80.60;;
12660;SDS011;39039;51.802;5.710;2023-05-10T06:36:32;78.80;;;56.20;;
12660;SDS011;39039;51.802;5.710;2023-05-10T06:38:59;86.37;;;60.03;;
12660;SDS011;39039;51.802;5.710;2023-05-10T06:41:27;78.87;;;54.50;;
12660;SDS011;39039;51.802;5.710;2023-05-10T06:43:53;71.30;;;51.97;;
12660;SDS011;39039;51.802;5.710;2023-05-10T06:46:20;75.40;;;53.67;;
12660;SDS011;39039;51.802;5.710;2023-05-10T06:48:47;83.27;;;55.20;;
12660;SDS011;39039;51.802;5.710;2023-05-10T06:51:14;67.03;;;55.27;;
12660;SDS011;39039;51.802;5.710;2023-05-10T06:53:43;73.10;;;55.90;;
12660;SDS011;39039;51.802;5.710;2023-05-10T06:56:11;62.50;;;51.47;;
12660;SDS011;39039;51.802;5.710;2023-05-10T06:58:38;63.07;;;55.27;;
12660;SDS011;39039;51.802;5.710;2023-05-10T07:01:05;69.77;;;55.30;;
12660;SDS011;39039;51.802;5.710;2023-05-10T07:03:33;65.13;;;55.77;;
12660;SDS011;39039;51.802;5.710;2023-05-10T07:06:00;69.87;;;55.07;;
12660;SDS011;39039;51.802;5.710;2023-05-10T07:08:29;64.53;;;51.57;;
12660;SDS011;39039;51.802;5.710;2023-05-10T07:11:00;70.03;;;55.57;;
12660;SDS011;39039;51.802;5.710;2023-05-10T07:13:28;64.53;;;51.43;;
12660;SDS011;39039;51.802;5.710;2023-05-10T07:15:55;69.13;;;50.03;;
12660;SDS011;39039;51.802;5.710;2023-05-10T07:18:22;63.63;;;51.43;;
12660;SDS011;39039;51.802;5.710;2023-05-10T07:20:49;63.97;;;54.37;;
12660;SDS011;39039;51.802;5.710;2023-05-10T07:23:16;64.17;;;52.50;;
12660;SDS011;39039;51.802;5.710;2023-05-10T07:25:44;61.57;;;53.87;;
12660;SDS011;39039;51.802;5.710;2023-05-10T07:28:13;65.83;;;54.67;;
12660;SDS011;39039;51.802;5.710;2023-05-10T07:30:40;80.30;;;72.50;;
12660;SDS011;39039;51.802;5.710;2023-05-10T07:33:08;67.03;;;53.60;;
12660;SDS011;39039;51.802;5.710;2023-05-10T07:35:35;71.00;;;62.03;;
12660;SDS011;39039;51.802;5.710;2023-05-10T07:38:02;84.50;;;71.50;;
12660;SDS011;39039;51.802;5.710;2023-05-10T07:40:29;64.13;;;53.83;;
12660;SDS011;39039;51.802;5.710;2023-05-10T07:42:56;75.13;;;58.90;;
12660;SDS011;39039;51.802;5.710;2023-05-10T07:45:26;73.93;;;54.17;;
12660;SDS011;39039;51.802;5.710;2023-05-10T07:47:52;68.90;;;55.83;;
12660;SDS011;39039;51.802;5.710;2023-05-10T07:50:20;67.57;;;55.90;;
12660;SDS011;39039;51.802;5.710;2023-05-10T07:52:47;69.83;;;57.53;;
12660;SDS011;39039;51.802;5.710;2023-05-10T07:55:14;66.23;;;53.33;;
12660;SDS011;39039;51.802;5.710;2023-05-10T07:57:41;65.37;;;56.90;;
12660;SDS011;39039;51.802;5.710;2023-05-10T08:00:09;64.40;;;57.00;;
12660;SDS011;39039;51.802;5.710;2023-05-10T08:02:40;67.47;;;55.03;;
12660;SDS011;39039;51.802;5.710;2023-05-10T08:05:07;69.03;;;61.63;;
12660;SDS011;39039;51.802;5.710;2023-05-10T08:07:34;68.40;;;61.17;;
12660;SDS011;39039;51.802;5.710;2023-05-10T08:10:02;64.80;;;57.93;;
12660;SDS011;39039;51.802;5.710;2023-05-10T08:12:29;71.67;;;64.40;;
12660;SDS011;39039;51.802;5.710;2023-05-10T08:14:56;73.30;;;59.20;;
12660;SDS011;39039;51.802;5.710;2023-05-10T08:17:23;63.90;;;55.77;;
12660;SDS011;39039;51.802;5.710;2023-05-10T08:19:51;63.80;;;56.83;;
12660;SDS011;39039;51.802;5.710;2023-05-10T08:22:18;59.63;;;53.20;;
12660;SDS011;39039;51.802;5.710;2023-05-10T08:24:45;53.87;;;48.03;;
12660;SDS011;39039;51.802;5.710;2023-05-10T08:27:12;75.63;;;68.37;;
12660;SDS011;39039;51.802;5.710;2023-05-10T08:29:39;50.40;;;44.80;;
12660;SDS011;39039;51.802;5.710;2023-05-10T08:32:06;47.50;;;42.30;;
12660;SDS011;39039;51.802;5.710;2023-05-10T08:34:33;52.27;;;46.53;;
12660;SDS011;39039;51.802;5.710;2023-05-10T08:37:02;52.87;;;46.47;;
12660;SDS011;39039;51.802;5.710;2023-05-10T08:39:33;52.57;;;46.73;;
12660;SDS011;39039;51.802;5.710;2023-05-10T08:42:01;61.57;;;53.10;;
12660;SDS011;39039;51.802;5.710;2023-05-10T08:44:29;56.90;;;50.03;;
12660;SDS011;39039;51.802;5.710;2023-05-10T08:46:56;65.83;;;54.80;;
12660;SDS011;39039;51.802;5.710;2023-05-10T08:49:24;65.73;;;53.93;;
12660;SDS011;39039;51.802;5.710;2023-05-10T08:51:54;65.67;;;58.60;;
12660;SDS011;39039;51.802;5.710;2023-05-10T08:54:23;71.90;;;64.23;;
12660;SDS011;39039;51.802;5.710;2023-05-10T08:56:50;68.07;;;61.23;;
12660;SDS011;39039;51.802;5.710;2023-05-10T08:59:18;69.13;;;59.90;;
12660;SDS011;39039;51.802;5.710;2023-05-10T09:01:46;71.37;;;59.27;;
12660;SDS011;39039;51.802;5.710;2023-05-10T09:04:14;64.17;;;53.67;;
12660;SDS011;39039;51.802;5.710;2023-05-10T09:06:41;59.20;;;52.70;;
12660;SDS011;39039;51.802;5.710;2023-05-10T09:09:08;58.97;;;52.53;;
12660;SDS011;39039;51.802;5.710;2023-05-10T09:11:37;55.03;;;49.10;;
12660;SDS011;39039;51.802;5.710;2023-05-10T09:14:04;66.47;;;59.97;;
12660;SDS011;39039;51.802;5.710;2023-05-10T09:16:31;52.40;;;46.60;;
12660;SDS011;39039;51.802;5.710;2023-05-10T09:18:58;52.60;;;47.10;;
12660;SDS011;39039;51.802;5.710;2023-05-10T09:21:25;46.93;;;41.97;;
12660;SDS011;39039;51.802;5.710;2023-05-10T09:23:53;50.93;;;45.83;;
12660;SDS011;39039;51.802;5.710;2023-05-10T09:26:22;50.93;;;46.00;;
12660;SDS011;39039;51.802;5.710;2023-05-10T09:28:51;44.90;;;40.03;;
12660;SDS011;39039;51.802;5.710;2023-05-10T09:31:18;47.73;;;43.03;;
12660;SDS011;39039;51.802;5.710;2023-05-10T09:33:46;48.90;;;43.97;;
12660;SDS011;39039;51.802;5.710;2023-05-10T09:36:13;50.53;;;45.70;;
12660;SDS011;39039;51.802;5.710;2023-05-10T09:38:47;49.53;;;44.67;;
12660;SDS011;39039;51.802;5.710;2023-05-10T09:41:17;44.80;;;40.10;;
12660;SDS011;39039;51.802;5.710;2023-05-10T09:43:45;43.47;;;39.00;;
12660;SDS011;39039;51.802;5.710;2023-05-10T09:46:13;40.90;;;36.90;;
12660;SDS011;39039;51.802;5.710;2023-05-10T09:48:41;38.97;;;35.00;;
12660;SDS011;39039;51.802;5.710;2023-05-10T09:51:09;38.67;;;34.77;;
12660;SDS011;39039;51.802;5.710;2023-05-10T09:53:36;39.20;;;35.13;;
12660;SDS011;39039;51.802;5.710;2023-05-10T09:56:03;39.77;;;35.77;;
12660;SDS011;39039;51.802;5.710;2023-05-10T09:58:30;40.10;;;35.87;;
12660;SDS011;39039;51.802;5.710;2023-05-10T10:00:57;44.63;;;39.90;;
12660;SDS011;39039;51.802;5.710;2023-05-10T10:03:25;46.00;;;41.40;;
12660;SDS011;39039;51.802;5.710;2023-05-10T10:05:54;47.93;;;43.20;;
12660;SDS011;39039;51.802;5.710;2023-05-10T10:08:21;43.60;;;39.30;;
12660;SDS011;39039;51.802;5.710;2023-05-10T10:10:49;39.67;;;35.73;;
12660;SDS011;39039;51.802;5.710;2023-05-10T10:13:15;38.80;;;35.10;;
12660;SDS011;39039;51.802;5.710;2023-05-10T10:15:43;33.77;;;30.37;;
12660;SDS011;39039;51.802;5.710;2023-05-10T10:18:12;30.07;;;27.47;;
12660;SDS011;39039;51.802;5.710;2023-05-10T10:20:41;30.08;;;27.38;;
12660;SDS011;39039;51.802;5.710;2023-05-10T10:23:08;28.43;;;26.03;;
12660;SDS011;39039;51.802;5.710;2023-05-10T10:25:36;27.45;;;25.20;;
12660;SDS011;39039;51.802;5.710;2023-05-10T10:28:08;28.80;;;26.50;;
12660;SDS011;39039;51.802;5.710;2023-05-10T10:30:39;27.33;;;25.25;;
12660;SDS011;39039;51.802;5.710;2023-05-10T10:33:13;26.30;;;24.30;;
12660;SDS011;39039;51.802;5.710;2023-05-10T10:35:46;26.02;;;23.95;;
12660;SDS011;39039;51.802;5.710;2023-05-10T10:38:13;21.88;;;20.20;;
12660;SDS011;39039;51.802;5.710;2023-05-10T10:40:40;27.65;;;25.67;;
12660;SDS011;39039;51.802;5.710;2023-05-10T10:43:20;23.90;;;21.92;;
12660;SDS011;39039;51.802;5.710;2023-05-10T10:45:48;27.02;;;24.70;;
12660;SDS011;39039;51.802;5.710;2023-05-10T10:48:35;26.40;;;24.58;;
12660;SDS011;39039;51.802;5.710;2023-05-10T10:51:03;32.83;;;30.70;;
12660;SDS011;39039;51.802;5.710;2023-05-10T10:53:31;27.63;;;25.92;;
12660;SDS011;39039;51.802;5.710;2023-05-10T10:56:05;26.88;;;25.13;;
12660;SDS011;39039;51.802;5.710;2023-05-10T10:58:34;25.63;;;23.90;;
12660;SDS011;39039;51.802;5.710;2023-05-10T11:01:11;26.85;;;24.92;;
12660;SDS011;39039;51.802;5.710;2023-05-10T11:03:38;23.05;;;21.45;;
12660;SDS011;39039;51.802;5.710;2023-05-10T11:06:07;24.02;;;22.42;;
12660;SDS011;39039;51.802;5.710;2023-05-10T11:08:34;24.67;;;23.08;;
12660;SDS011;39039;51.802;5.710;2023-05-10T11:11:08;25.13;;;23.25;;
12660;SDS011;39039;51.802;5.710;2023-05-10T11:13:39;27.10;;;25.33;;
12660;SDS011;39039;51.802;5.710;2023-05-10T11:16:10;30.52;;;28.73;;
12660;SDS011;39039;51.802;5.710;2023-05-10T11:18:38;22.95;;;21.48;;
12660;SDS011;39039;51.802;5.710;2023-05-10T11:21:08;22.27;;;20.88;;
12660;SDS011;39039;51.802;5.710;2023-05-10T11:23:47;24.55;;;22.85;;
12660;SDS011;39039;51.802;5.710;2023-05-10T11:26:14;22.05;;;20.55;;
12660;SDS011;39039;51.802;5.710;2023-05-10T11:28:41;19.83;;;18.48;;
12660;SDS011;39039;51.802;5.710;2023-05-10T11:31:08;25.65;;;24.02;;
12660;SDS011;39039;51.802;5.710;2023-05-10T11:33:42;19.27;;;17.88;;
12660;SDS011;39039;51.802;5.710;2023-05-10T11:36:11;25.98;;;24.27;;
12660;SDS011;39039;51.802;5.710;2023-05-10T11:38:39;32.45;;;30.50;;
12660;SDS011;39039;51.802;5.710;2023-05-10T11:41:07;27.55;;;25.73;;
12660;SDS011;39039;51.802;5.710;2023-05-10T11:43:35;23.63;;;21.88;;
12660;SDS011;39039;51.802;5.710;2023-05-10T11:46:03;30.50;;;28.52;;
12660;SDS011;39039;51.802;5.710;2023-05-10T11:48:30;27.45;;;25.65;;
12660;SDS011;39039;51.802;5.710;2023-05-10T11:50:58;24.25;;;22.65;;
12660;SDS011;39039;51.802;5.710;2023-05-10T11:53:27;20.73;;;19.42;;
12660;SDS011;39039;51.802;5.710;2023-05-10T11:55:54;20.95;;;19.35;;
12660;SDS011;39039;51.802;5.710;2023-05-10T11:58:23;20.38;;;18.85;;
12660;SDS011;39039;51.802;5.710;2023-05-10T12:00:50;19.98;;;18.50;;
12660;SDS011;39039;51.802;5.710;2023-05-10T12:03:17;21.38;;;19.95;;
12660;SDS011;39039;51.802;5.710;2023-05-10T12:05:44;21.75;;;20.20;;
12660;SDS011;39039;51.802;5.710;2023-05-10T12:08:11;21.08;;;19.67;;
12660;SDS011;39039;51.802;5.710;2023-05-10T12:10:40;20.27;;;18.88;;
12660;SDS011;39039;51.802;5.710;2023-05-10T12:13:10;22.80;;;21.15;;
12660;SDS011;39039;51.802;5.710;2023-05-10T12:15:38;24.83;;;23.23;;
12660;SDS011;39039;51.802;5.710;2023-05-10T12:18:05;22.88;;;21.38;;
12660;SDS011;39039;51.802;5.710;2023-05-10T12:20:33;24.08;;;22.45;;
12660;SDS011;39039;51.802;5.710;2023-05-10T12:22:59;20.23;;;18.70;;
12660;SDS011;39039;51.802;5.710;2023-05-10T12:25:29;28.63;;;26.67;;
12660;SDS011;39039;51.802;5.710;2023-05-10T12:27:58;28.52;;;26.52;;
12660;SDS011;39039;51.802;5.710;2023-05-10T12:30:27;24.45;;;22.50;;
12660;SDS011;39039;51.802;5.710;2023-05-10T12:32:54;30.90;;;28.70;;
12660;SDS011;39039;51.802;5.710;2023-05-10T12:35:26;28.90;;;26.60;;
12660;SDS011;39039;51.802;5.710;2023-05-10T12:37:55;29.63;;;27.33;;
12660;SDS011;39039;51.802;5.710;2023-05-10T12:40:22;26.93;;;25.03;;
12660;SDS011;39039;51.802;5.710;2023-05-10T12:42:49;31.70;;;29.40;;
12660;SDS011;39039;51.802;5.710;2023-05-10T12:45:18;38.57;;;35.90;;
12660;SDS011;39039;51.802;5.710;2023-05-10T12:47:45;27.98;;;25.98;;
12660;SDS011;39039;51.802;5.710;2023-05-10T12:50:12;28.70;;;26.60;;
12660;SDS011;39039;51.802;5.710;2023-05-10T12:52:39;26.25;;;24.25;;
12660;SDS011;39039;51.802;5.710;2023-05-10T12:55:06;25.60;;;23.73;;
12660;SDS011;39039;51.802;5.710;2023-05-10T12:57:34;25.87;;;24.03;;
12660;SDS011;39039;51.802;5.710;2023-05-10T13:00:01;24.97;;;23.33;;
12660;SDS011;39039;51.802;5.710;2023-05-10T13:02:29;27.20;;;25.50;;
12660;SDS011;39039;51.802;5.710;2023-05-10T13:04:56;32.90;;;30.67;;
12660;SDS011;39039;51.802;5.710;2023-05-10T13:07:23;28.97;;;26.97;;
12660;SDS011;39039;51.802;5.710;2023-05-10T13:09:50;30.83;;;28.80;;
12660;SDS011;39039;51.802;5.710;2023-05-10T13:12:17;25.03;;;23.40;;
12660;SDS011;39039;51.802;5.710;2023-05-10T13:14:44;27.47;;;25.67;;
12660;SDS011;39039;51.802;5.710;2023-05-10T13:17:11;25.37;;;23.77;;
12660;SDS011;39039;51.802;5.710;2023-05-10T13:19:40;25.07;;;23.47;;
12660;SDS011;39039;51.802;5.710;2023-05-10T13:22:07;23.87;;;22.17;;
12660;SDS011;39039;51.802;5.710;2023-05-10T13:24:34;26.40;;;24.52;;
12660;SDS011;39039;51.802;5.710;2023-05-10T13:27:01;24.63;;;22.95;;
12660;SDS011;39039;51.802;5.710;2023-05-10T13:29:28;23.58;;;22.08;;
12660;SDS011;39039;51.802;5.710;2023-05-10T13:31:55;24.75;;;23.17;;
12660;SDS011;39039;51.802;5.710;2023-05-10T13:34:22;24.83;;;23.23;;
12660;SDS011;39039;51.802;5.710;2023-05-10T13:36:50;25.98;;;24.27;;
12660;SDS011;39039;51.802;5.710;2023-05-10T13:39:18;26.83;;;25.10;;
12660;SDS011;39039;51.802;5.710;2023-05-10T13:41:45;29.38;;;27.55;;
12660;SDS011;39039;51.802;5.710;2023-05-10T13:44:13;50.55;;;46.90;;
12660;SDS011;39039;51.802;5.710;2023-05-10T13:46:40;33.50;;;31.27;;
12660;SDS011;39039;51.802;5.710;2023-05-10T13:49:08;35.07;;;32.67;;
12660;SDS011;39039;51.802;5.710;2023-05-10T13:51:35;37.43;;;35.03;;
12660;SDS011;39039;51.802;5.710;2023-05-10T13:54:04;38.80;;;36.10;;
12660;SDS011;39039;51.802;5.710;2023-05-10T13:56:31;33.60;;;31.40;;
12660;SDS011;39039;51.802;5.710;2023-05-10T13:58:58;37.83;;;35.30;;
12660;SDS011;39039;51.802;5.710;2023-05-10T14:01:25;37.13;;;34.57;;
12660;SDS011;39039;51.802;5.710;2023-05-10T14:03:52;39.72;;;36.95;;
12660;SDS011;39039;51.802;5.710;2023-05-10T14:06:20;41.07;;;38.20;;
12660;SDS011;39039;51.802;5.710;2023-05-10T14:08:47;38.60;;;36.10;;
12660;SDS011;39039;51.802;5.710;2023-05-10T14:11:15;48.20;;;44.92;;
12660;SDS011;39039;51.802;5.710;2023-05-10T14:13:42;38.15;;;35.58;;
12660;SDS011;39039;51.802;5.710;2023-05-10T14:16:09;37.70;;;35.05;;
12660;SDS011;39039;51.802;5.710;2023-05-10T14:18:36;33.67;;;31.20;;
12660;SDS011;39039;51.802;5.710;2023-05-10T14:21:03;38.33;;;35.85;;
12660;SDS011;39039;51.802;5.710;2023-05-10T14:23:31;32.17;;;29.98;;
12660;SDS011;39039;51.802;5.710;2023-05-10T14:25:58;29.55;;;27.65;;
12660;SDS011;39039;51.802;5.710;2023-05-10T14:28:26;23.55;;;21.95;;